createdAt,value
2022-10-13T00:00:49.559Z,8.10
2022-10-13T00:03:17.458Z,8.10
2022-10-13T00:05:47.752Z,8.10
2022-10-13T00:08:19.564Z,8.10
2022-10-13T00:10:49.010Z,8.10
2022-10-13T00:13:17.024Z,8.20
2022-10-13T00:15:46.172Z,8.20
2022-10-13T00:18:14.263Z,8.20
2022-10-13T00:20:43.609Z,8.20
2022-10-13T00:23:11.515Z,8.20
2022-10-13T00:25:46.967Z,8.20
2022-10-13T00:28:16.293Z,8.20
2022-10-13T00:30:43.641Z,8.20
2022-10-13T00:33:13.161Z,8.20
2022-10-13T00:35:46.183Z,8.20
2022-10-13T00:38:14.337Z,8.20
2022-10-13T00:40:56.084Z,8.30
2022-10-13T00:43:58.443Z,8.20
2022-10-13T00:46:36.387Z,8.20
2022-10-13T00:49:14.705Z,8.30
2022-10-13T00:51:46.854Z,8.30
2022-10-13T00:54:20.927Z,8.30
2022-10-13T00:56:49.085Z,8.30
2022-10-13T00:59:23.649Z,8.30
2022-10-13T01:01:54.943Z,8.30
2022-10-13T01:04:25.993Z,8.30
2022-10-13T01:06:55.259Z,8.30
2022-10-13T01:09:22.603Z,8.40
2022-10-13T01:12:28.538Z,8.40
2022-10-13T01:15:07.826Z,8.40
2022-10-13T01:17:55.311Z,8.40
2022-10-13T01:20:59.732Z,8.40
2022-10-13T01:23:43.618Z,8.40
2022-10-13T01:26:26.101Z,8.40
2022-10-13T01:29:08.348Z,8.40
2022-10-13T01:31:45.451Z,8.40
2022-10-13T01:34:18.132Z,8.40
2022-10-13T01:37:00.151Z,8.50
2022-10-13T01:39:30.714Z,8.40
2022-10-13T01:42:11.492Z,8.40
2022-10-13T01:44:43.842Z,8.50
2022-10-13T01:47:14.857Z,8.50
2022-10-13T01:49:43.841Z,8.50
2022-10-13T01:52:18.338Z,8.50
2022-10-13T01:54:51.482Z,8.50
2022-10-13T01:57:35.021Z,8.50
2022-10-13T02:00:09.641Z,8.50
2022-10-13T02:03:00.277Z,8.50
2022-10-13T02:05:36.753Z,8.50
2022-10-13T02:08:28.662Z,8.50
2022-10-13T02:11:18.522Z,8.50
2022-10-13T02:13:51.382Z,8.50
2022-10-13T02:16:21.221Z,8.50
2022-10-13T02:18:49.084Z,8.50
2022-10-13T02:21:17.798Z,8.60
2022-10-13T02:23:46.280Z,8.60
2022-10-13T02:26:14.437Z,8.60
2022-10-13T02:28:42.027Z,8.60
2022-10-13T02:31:09.755Z,8.60
2022-10-13T02:33:37.144Z,8.60
2022-10-13T02:36:04.797Z,8.60
2022-10-13T02:38:32.038Z,8.60
2022-10-13T02:41:02.020Z,8.60
2022-10-13T02:43:30.394Z,8.50
2022-10-13T02:45:57.495Z,8.50
2022-10-13T02:48:24.456Z,8.50
2022-10-13T02:50:51.877Z,8.40
2022-10-13T02:53:19.030Z,8.40
2022-10-13T02:55:46.310Z,8.40
2022-10-13T02:58:13.546Z,8.40
2022-10-13T03:00:41.745Z,8.30
2022-10-13T03:03:09.896Z,8.20
2022-10-13T03:05:37.162Z,8.20
2022-10-13T03:08:05.016Z,8.10
2022-10-13T03:10:32.290Z,8.10
2022-10-13T03:12:59.849Z,8.10
2022-10-13T03:15:26.952Z,8.00
2022-10-13T03:17:54.119Z,8.00
2022-10-13T03:20:21.277Z,7.90
2022-10-13T03:22:49.939Z,7.90
2022-10-13T03:25:17.620Z,7.80
2022-10-13T03:27:44.730Z,7.80
2022-10-13T03:30:12.252Z,7.80
2022-10-13T03:32:41.045Z,7.70
2022-10-13T03:35:08.561Z,7.70
2022-10-13T03:37:35.919Z,7.70
2022-10-13T03:40:03.654Z,7.60
2022-10-13T03:42:30.914Z,7.60
2022-10-13T03:44:58.275Z,7.50
2022-10-13T03:47:25.585Z,7.50
2022-10-13T03:49:55.361Z,7.50
2022-10-13T03:52:23.229Z,7.50
2022-10-13T03:54:50.547Z,7.40
2022-10-13T03:57:17.570Z,7.40
2022-10-13T03:59:44.878Z,7.40
2022-10-13T04:02:12.219Z,7.30
2022-10-13T04:04:39.726Z,7.30
2022-10-13T04:07:08.775Z,7.30
2022-10-13T04:09:35.951Z,7.20
2022-10-13T04:12:03.338Z,7.20
2022-10-13T04:14:30.641Z,7.20
2022-10-13T04:16:58.011Z,7.20
2022-10-13T04:19:25.334Z,7.10
2022-10-13T04:21:52.383Z,7.10
2022-10-13T04:24:19.638Z,7.10
2022-10-13T04:26:47.043Z,7.10
2022-10-13T04:29:14.133Z,7.00
2022-10-13T04:31:44.272Z,7.00
2022-10-13T04:34:12.395Z,7.00
2022-10-13T04:36:39.599Z,7.00
2022-10-13T04:39:06.751Z,7.00
2022-10-13T04:41:33.728Z,7.00
2022-10-13T04:44:02.769Z,7.00
2022-10-13T04:46:30.240Z,7.00
2022-10-13T04:48:57.883Z,7.00
2022-10-13T04:51:26.480Z,7.00
2022-10-13T04:53:58.580Z,7.10
2022-10-13T04:56:26.182Z,7.10
2022-10-13T04:58:53.874Z,7.10
2022-10-13T05:01:24.398Z,7.10
2022-10-13T05:04:03.567Z,7.10
2022-10-13T05:06:41.613Z,7.10
2022-10-13T05:09:16.825Z,7.10
2022-10-13T05:11:44.177Z,7.20
2022-10-13T05:14:11.580Z,7.20
2022-10-13T05:16:38.745Z,7.30
2022-10-13T05:19:06.136Z,7.30
2022-10-13T05:21:33.396Z,7.30
2022-10-13T05:24:02.640Z,7.30
2022-10-13T05:26:32.282Z,7.40
2022-10-13T05:29:00.497Z,7.40
2022-10-13T05:31:29.139Z,7.40
2022-10-13T05:33:57.081Z,7.40
2022-10-13T05:36:27.647Z,7.50
2022-10-13T05:38:58.025Z,7.50
2022-10-13T05:41:26.866Z,7.50
2022-10-13T05:43:57.625Z,7.50
2022-10-13T05:46:25.349Z,7.60
2022-10-13T05:48:52.456Z,7.60
2022-10-13T05:51:42.986Z,7.60
2022-10-13T05:54:20.581Z,7.60
2022-10-13T05:56:59.113Z,7.60
2022-10-13T05:59:29.581Z,7.70
2022-10-13T06:01:56.818Z,7.70
2022-10-13T06:04:32.187Z,7.70
2022-10-13T06:06:59.373Z,7.80
2022-10-13T06:09:34.804Z,7.80
2022-10-13T06:12:02.153Z,7.80
2022-10-13T06:14:29.504Z,7.80
2022-10-13T06:16:56.708Z,7.80
2022-10-13T06:19:24.309Z,7.90
2022-10-13T06:21:51.472Z,7.90
2022-10-13T06:24:18.792Z,7.90
2022-10-13T06:26:46.341Z,7.90
2022-10-13T06:29:13.614Z,7.90
2022-10-13T06:31:40.962Z,8.00
2022-10-13T06:34:08.284Z,8.00
2022-10-13T06:36:35.746Z,8.00
2022-10-13T06:39:03.000Z,8.00
2022-10-13T06:41:30.347Z,8.10
2022-10-13T06:43:57.514Z,8.10
2022-10-13T06:46:24.679Z,8.10
2022-10-13T06:48:52.842Z,8.20
2022-10-13T06:51:20.038Z,8.20
2022-10-13T06:53:47.462Z,8.20
2022-10-13T06:56:15.874Z,8.30
2022-10-13T06:58:43.118Z,8.30
2022-10-13T07:01:13.795Z,8.40
2022-10-13T07:03:41.161Z,8.40
2022-10-13T07:06:08.691Z,8.50
2022-10-13T07:08:36.456Z,8.50
2022-10-13T07:11:12.931Z,8.60
2022-10-13T07:13:46.174Z,8.50
2022-10-13T07:16:15.782Z,8.60
2022-10-13T07:18:43.067Z,8.60
2022-10-13T07:21:10.474Z,8.60
2022-10-13T07:23:37.836Z,8.70
2022-10-13T07:26:13.506Z,8.70
2022-10-13T07:28:41.644Z,8.80
2022-10-13T07:31:12.100Z,8.90
2022-10-13T07:33:39.369Z,8.90
2022-10-13T07:36:07.177Z,9.00
2022-10-13T07:38:34.651Z,9.00
2022-10-13T07:41:03.402Z,9.10
2022-10-13T07:43:30.798Z,9.20
2022-10-13T07:46:02.327Z,9.20
2022-10-13T07:48:29.547Z,9.30
2022-10-13T07:50:56.812Z,9.30
2022-10-13T07:53:24.173Z,9.40
2022-10-13T07:55:51.785Z,9.40
2022-10-13T07:58:19.008Z,9.40
2022-10-13T08:00:46.519Z,9.50
2022-10-13T08:03:13.856Z,9.50
2022-10-13T08:05:41.398Z,9.60
2022-10-13T08:08:08.755Z,9.70
2022-10-13T08:10:36.021Z,9.70
2022-10-13T08:13:03.384Z,9.80
2022-10-13T08:15:30.817Z,9.90
2022-10-13T08:17:58.330Z,9.90
2022-10-13T08:20:28.895Z,10.00
2022-10-13T08:23:03.806Z,10.10
2022-10-13T08:25:31.187Z,10.10
2022-10-13T08:28:00.630Z,10.30
2022-10-13T08:30:28.081Z,10.30
2022-10-13T08:32:55.431Z,10.40
2022-10-13T08:35:22.512Z,10.50
2022-10-13T08:37:49.948Z,10.50
2022-10-13T08:40:21.186Z,10.60
2022-10-13T08:42:48.850Z,10.70
2022-10-13T08:45:41.815Z,10.80
2022-10-13T08:48:23.203Z,10.90
2022-10-13T08:50:55.319Z,10.90
2022-10-13T08:53:36.143Z,11.00
2022-10-13T08:56:28.762Z,11.10
2022-10-13T08:58:57.090Z,11.20
2022-10-13T09:01:30.154Z,11.30
2022-10-13T09:04:33.676Z,11.40
2022-10-13T09:07:31.568Z,11.50
2022-10-13T09:09:59.149Z,11.60
2022-10-13T09:12:27.200Z,11.70
2022-10-13T09:15:03.138Z,11.70
2022-10-13T09:17:31.059Z,11.90
2022-10-13T09:20:15.521Z,12.00
2022-10-13T09:22:43.054Z,12.10
2022-10-13T09:25:18.953Z,12.20
2022-10-13T09:27:52.664Z,12.30
2022-10-13T09:30:39.295Z,12.30
2022-10-13T09:33:07.679Z,12.30
2022-10-13T09:35:55.535Z,12.40
2022-10-13T09:38:25.620Z,12.50
2022-10-13T09:41:05.138Z,12.60
2022-10-13T09:43:38.361Z,12.90
2022-10-13T09:46:19.070Z,13.10
2022-10-13T09:48:53.882Z,13.30
2022-10-13T09:51:33.580Z,13.50
2022-10-13T09:54:01.250Z,13.60
2022-10-13T09:56:44.041Z,13.60
2022-10-13T09:59:25.309Z,13.70
2022-10-13T10:01:55.739Z,13.70
2022-10-13T10:04:39.056Z,13.80
2022-10-13T10:07:18.990Z,13.80
2022-10-13T10:09:51.598Z,13.80
2022-10-13T10:12:27.567Z,13.80
2022-10-13T10:14:55.975Z,13.80
2022-10-13T10:17:44.425Z,13.80
2022-10-13T10:20:37.968Z,13.90
2022-10-13T10:23:19.209Z,13.90
2022-10-13T10:25:58.406Z,13.90
2022-10-13T10:28:30.795Z,14.00
2022-10-13T10:31:24.369Z,14.00
2022-10-13T10:34:01.906Z,14.20
2022-10-13T10:37:06.755Z,14.30
2022-10-13T10:39:52.230Z,14.40
2022-10-13T10:42:51.960Z,14.60
2022-10-13T10:45:25.327Z,14.70
2022-10-13T10:47:58.463Z,14.90
2022-10-13T10:50:26.219Z,15.00
2022-10-13T10:53:37.443Z,15.20
2022-10-13T10:56:23.027Z,15.40
2022-10-13T10:59:13.253Z,15.70
2022-10-13T11:02:14.447Z,16.00
2022-10-13T11:04:46.582Z,16.20
2022-10-13T11:07:15.649Z,16.30
2022-10-13T11:09:42.992Z,16.30
2022-10-13T11:12:23.451Z,16.30
2022-10-13T11:15:06.475Z,16.20
2022-10-13T11:17:38.569Z,16.20
2022-10-13T11:20:20.553Z,16.20
2022-10-13T11:23:00.260Z,16.20
2022-10-13T11:25:41.139Z,16.20
2022-10-13T11:28:25.122Z,16.20
2022-10-13T11:31:37.250Z,16.30
2022-10-13T11:34:04.451Z,16.50
2022-10-13T11:36:55.921Z,16.50
2022-10-13T11:42:09.720Z,16.60
2022-10-13T11:44:54.742Z,16.70
2022-10-13T11:48:03.151Z,16.70
2022-10-13T11:50:51.943Z,16.70
2022-10-13T11:53:23.341Z,16.70
2022-10-13T11:55:59.086Z,16.60
2022-10-13T11:58:30.458Z,16.60
2022-10-13T12:01:01.933Z,16.60
2022-10-13T12:03:33.845Z,16.70
2022-10-13T12:06:16.994Z,16.80
2022-10-13T12:08:48.696Z,16.80
2022-10-13T12:11:37.741Z,16.90
2022-10-13T12:14:08.742Z,16.80
2022-10-13T12:16:36.142Z,16.80
2022-10-13T12:19:33.076Z,16.90
2022-10-13T12:22:01.856Z,16.90
2022-10-13T12:24:31.247Z,17.00
2022-10-13T12:26:59.932Z,17.00
2022-10-13T12:29:33.463Z,17.10
2022-10-13T12:32:04.338Z,17.10
2022-10-13T12:34:36.207Z,17.10
2022-10-13T12:37:11.031Z,17.10
2022-10-13T12:39:39.793Z,17.20
2022-10-13T12:42:11.244Z,17.20
2022-10-13T12:44:39.064Z,17.20
2022-10-13T12:47:06.491Z,17.10
2022-10-13T12:49:35.894Z,17.10
2022-10-13T12:52:24.194Z,17.10
2022-10-13T12:54:55.329Z,17.00
2022-10-13T12:57:36.252Z,16.90
2022-10-13T13:00:06.184Z,16.90
2022-10-13T13:02:34.071Z,17.00
2022-10-13T13:05:01.396Z,17.00
2022-10-13T13:07:33.351Z,17.10
2022-10-13T13:10:07.748Z,17.10
2022-10-13T13:12:36.672Z,17.20
2022-10-13T13:15:26.110Z,17.20
2022-10-13T13:17:59.266Z,17.20
2022-10-13T13:20:29.955Z,17.10
2022-10-13T13:22:58.319Z,17.10
2022-10-13T13:25:26.039Z,17.10
2022-10-13T13:27:53.973Z,17.10
2022-10-13T13:30:23.077Z,17.10
2022-10-13T13:32:51.024Z,17.10
2022-10-13T13:35:19.344Z,17.00
2022-10-13T13:37:50.702Z,17.00
2022-10-13T13:40:26.063Z,17.00
2022-10-13T13:42:54.451Z,16.90
2022-10-13T13:45:29.279Z,16.90
2022-10-13T13:48:00.498Z,17.00
2022-10-13T13:50:33.586Z,17.00
2022-10-13T13:53:01.119Z,17.10
2022-10-13T13:55:29.925Z,17.10
2022-10-13T13:57:58.089Z,17.00
2022-10-13T14:00:25.881Z,17.00
2022-10-13T14:02:53.052Z,17.00
2022-10-13T14:05:20.511Z,16.90
2022-10-13T14:07:47.819Z,16.90
2022-10-13T14:10:15.418Z,16.90
2022-10-13T14:12:42.834Z,16.80
2022-10-13T14:15:10.654Z,16.80
2022-10-13T14:17:38.214Z,16.80
2022-10-13T14:20:06.355Z,16.80
2022-10-13T14:22:33.694Z,16.80
2022-10-13T14:25:01.041Z,16.80
2022-10-13T14:27:28.230Z,16.80
2022-10-13T14:29:55.553Z,16.80
2022-10-13T14:32:23.246Z,16.80
2022-10-13T14:34:50.523Z,16.80
2022-10-13T14:37:22.169Z,16.90
2022-10-13T14:39:50.613Z,16.90
2022-10-13T14:42:17.753Z,16.90
2022-10-13T14:44:45.566Z,16.90
2022-10-13T14:47:12.825Z,16.80
2022-10-13T14:49:40.448Z,16.80
2022-10-13T14:52:08.964Z,16.80
2022-10-13T14:54:38.151Z,16.80
2022-10-13T14:57:08.513Z,16.80
2022-10-13T14:59:35.801Z,16.80
2022-10-13T15:02:03.533Z,16.80
2022-10-13T15:04:30.928Z,16.80
2022-10-13T15:06:58.568Z,16.70
2022-10-13T15:09:33.689Z,16.70
2022-10-13T15:12:12.578Z,16.70
2022-10-13T15:14:39.964Z,16.60
2022-10-13T15:17:07.193Z,16.60
2022-10-13T15:19:34.842Z,16.60
2022-10-13T15:22:02.118Z,16.60
2022-10-13T15:24:29.552Z,16.50
2022-10-13T15:26:56.751Z,16.50
2022-10-13T15:29:24.200Z,16.50
2022-10-13T15:31:51.393Z,16.50
2022-10-13T15:34:18.705Z,16.50
2022-10-13T15:36:46.039Z,16.50
2022-10-13T15:39:13.466Z,16.40
2022-10-13T15:41:40.863Z,16.40
2022-10-13T15:44:08.000Z,16.40
2022-10-13T15:46:35.403Z,16.40
2022-10-13T15:49:02.526Z,16.40
2022-10-13T15:51:30.519Z,16.30
2022-10-13T15:53:57.642Z,16.40
2022-10-13T15:56:25.271Z,16.30
2022-10-13T15:58:52.506Z,16.30
2022-10-13T16:01:19.871Z,16.30
2022-10-13T16:03:47.141Z,16.30
2022-10-13T16:06:15.059Z,16.20
2022-10-13T16:08:46.003Z,16.20
2022-10-13T16:11:16.477Z,16.20
2022-10-13T16:13:48.583Z,16.20
2022-10-13T16:16:16.345Z,16.10
2022-10-13T16:18:45.058Z,16.20
2022-10-13T16:21:19.013Z,16.10
2022-10-13T16:23:48.176Z,16.10
2022-10-13T16:26:17.729Z,16.10
2022-10-13T16:28:46.182Z,16.00
2022-10-13T16:31:15.372Z,16.00
2022-10-13T16:33:44.363Z,16.00
2022-10-13T16:36:14.242Z,16.00
2022-10-13T16:38:42.421Z,15.90
2022-10-13T16:41:14.313Z,15.90
2022-10-13T16:43:43.284Z,15.80
2022-10-13T16:46:18.030Z,15.80
2022-10-13T16:48:46.878Z,15.80
2022-10-13T16:51:20.279Z,15.70
2022-10-13T16:54:01.159Z,15.70
2022-10-13T16:56:31.445Z,15.70
2022-10-13T16:59:20.571Z,15.60
2022-10-13T17:01:49.424Z,15.60
2022-10-13T17:04:21.248Z,15.50
2022-10-13T17:06:49.395Z,15.50
2022-10-13T17:09:16.798Z,15.50
2022-10-13T17:11:44.309Z,15.40
2022-10-13T17:14:11.513Z,15.40
2022-10-13T17:16:38.767Z,15.40
2022-10-13T17:19:07.053Z,15.40
2022-10-13T17:21:34.409Z,15.40
2022-10-13T17:24:02.067Z,15.30
2022-10-13T17:26:29.258Z,15.30
2022-10-13T17:28:56.555Z,15.30
2022-10-13T17:31:24.636Z,15.30
2022-10-13T17:33:52.600Z,15.30
2022-10-13T17:36:29.273Z,15.30
2022-10-13T17:39:08.477Z,15.30
2022-10-13T17:41:36.006Z,15.30
2022-10-13T17:44:03.743Z,15.30
2022-10-13T17:46:37.532Z,15.30
2022-10-13T17:49:06.169Z,15.30
2022-10-13T17:51:33.467Z,15.20
2022-10-13T17:54:01.161Z,15.20
2022-10-13T17:56:28.831Z,15.20
2022-10-13T17:58:57.019Z,15.20
2022-10-13T18:01:30.607Z,15.20
2022-10-13T18:04:00.384Z,15.20
2022-10-13T18:06:38.909Z,15.20
2022-10-13T18:09:11.302Z,15.10
2022-10-13T18:11:39.556Z,15.10
2022-10-13T18:14:07.027Z,15.00
2022-10-13T18:16:35.124Z,15.00
2022-10-13T18:19:02.718Z,15.00
2022-10-13T18:21:30.046Z,14.90
2022-10-13T18:24:00.383Z,14.90
2022-10-13T18:26:32.039Z,14.90
2022-10-13T18:28:59.532Z,14.80
2022-10-13T18:31:29.857Z,14.80
2022-10-13T18:33:58.987Z,14.70
2022-10-13T18:36:29.740Z,14.70
2022-10-13T18:39:07.645Z,14.70
2022-10-13T18:41:36.754Z,14.60
2022-10-13T18:44:05.120Z,14.60
2022-10-13T18:46:36.955Z,14.60
2022-10-13T18:49:05.466Z,14.50
2022-10-13T18:51:36.481Z,14.50
2022-10-13T18:54:04.761Z,14.40
2022-10-13T18:56:33.081Z,14.40
2022-10-13T18:59:02.320Z,14.40
2022-10-13T19:01:32.201Z,14.30
2022-10-13T19:03:59.975Z,14.30
2022-10-13T19:06:29.187Z,14.30
2022-10-13T19:09:01.848Z,14.20
2022-10-13T19:11:30.837Z,14.20
2022-10-13T19:13:59.488Z,14.20
2022-10-13T19:16:29.117Z,14.10
2022-10-13T19:18:56.894Z,14.10
2022-10-13T19:21:25.081Z,14.10
2022-10-13T19:23:52.792Z,14.10
2022-10-13T19:26:25.801Z,14.00
2022-10-13T19:29:11.421Z,14.00
2022-10-13T19:31:40.742Z,13.90
2022-10-13T19:34:08.711Z,13.90
2022-10-13T19:36:39.612Z,13.90
2022-10-13T19:39:11.917Z,13.90
2022-10-13T19:41:39.545Z,13.90
2022-10-13T19:44:06.879Z,13.90
2022-10-13T19:46:36.356Z,13.90
2022-10-13T19:49:05.590Z,13.90
2022-10-13T19:51:34.157Z,13.90
2022-10-13T19:54:01.847Z,13.90
2022-10-13T19:56:34.384Z,14.00
2022-10-13T19:59:04.744Z,14.00
2022-10-13T20:01:33.663Z,14.00
2022-10-13T20:04:01.176Z,14.00
2022-10-13T20:06:28.548Z,14.00
2022-10-13T20:08:55.754Z,14.00
2022-10-13T20:11:24.273Z,14.10
2022-10-13T20:13:53.216Z,14.00
2022-10-13T20:16:23.628Z,14.10
2022-10-13T20:18:59.393Z,14.10
2022-10-13T20:21:28.991Z,14.10
2022-10-13T20:23:57.081Z,14.10
2022-10-13T20:26:25.473Z,14.10
2022-10-13T20:28:54.568Z,14.00
2022-10-13T20:31:23.206Z,14.00
2022-10-13T20:33:56.230Z,14.00
2022-10-13T20:36:25.161Z,14.00
2022-10-13T20:38:52.821Z,14.00
2022-10-13T20:41:26.704Z,14.00
2022-10-13T20:43:55.963Z,14.00
2022-10-13T20:46:24.257Z,14.00
2022-10-13T20:51:41.335Z,14.00
2022-10-13T20:54:09.053Z,14.00
2022-10-13T20:56:36.358Z,14.00
2022-10-13T20:59:05.613Z,14.00
2022-10-13T21:01:33.469Z,14.00
2022-10-13T21:04:00.634Z,13.90
2022-10-13T21:06:27.969Z,13.90
2022-10-13T21:08:55.270Z,13.90
2022-10-13T21:11:24.335Z,13.80
2022-10-13T21:13:52.801Z,13.80
2022-10-13T21:16:27.451Z,13.80
2022-10-13T21:18:56.841Z,13.80
2022-10-13T21:21:29.543Z,13.80
2022-10-13T21:23:59.920Z,13.80
2022-10-13T21:26:29.130Z,13.80
2022-10-13T21:28:56.887Z,13.80
2022-10-13T21:31:25.297Z,13.80
2022-10-13T21:33:52.524Z,13.80
2022-10-13T21:36:28.462Z,13.80
2022-10-13T21:38:58.748Z,13.70
2022-10-13T21:41:27.078Z,13.70
2022-10-13T21:43:54.740Z,13.70
2022-10-13T21:46:27.340Z,13.70
2022-10-13T21:48:56.934Z,13.70
2022-10-13T21:51:29.840Z,13.70
2022-10-13T21:54:02.732Z,13.70
2022-10-13T21:56:31.870Z,13.70
2022-10-13T21:59:01.146Z,13.70
2022-10-13T22:01:29.172Z,13.70
2022-10-13T22:03:59.134Z,13.70
2022-10-13T22:06:27.747Z,13.70
2022-10-13T22:08:56.719Z,13.70
2022-10-13T22:11:26.856Z,13.70
2022-10-13T22:13:56.076Z,13.70
2022-10-13T22:16:29.058Z,13.70
2022-10-13T22:18:57.464Z,13.70
2022-10-13T22:21:30.545Z,13.70
2022-10-13T22:24:00.557Z,13.70
2022-10-13T22:26:29.950Z,13.70
2022-10-13T22:28:59.315Z,13.70
2022-10-13T22:31:27.664Z,13.60
2022-10-13T22:33:54.914Z,13.60
2022-10-13T22:36:24.163Z,13.60
2022-10-13T22:38:53.304Z,13.60
2022-10-13T22:41:21.265Z,13.60
2022-10-13T22:43:53.519Z,13.60
2022-10-13T22:46:23.175Z,13.60
2022-10-13T22:48:50.640Z,13.60
2022-10-13T22:51:21.111Z,13.60
2022-10-13T22:53:49.288Z,13.60
2022-10-13T22:56:19.182Z,13.60
2022-10-13T22:58:53.683Z,13.60
2022-10-13T23:01:21.832Z,13.60
2022-10-13T23:03:51.628Z,13.60
2022-10-13T23:06:22.927Z,13.60
2022-10-13T23:08:50.535Z,13.60
2022-10-13T23:11:18.588Z,13.60
2022-10-13T23:13:46.582Z,13.60
2022-10-13T23:16:17.179Z,13.60
2022-10-13T23:18:44.562Z,13.60
2022-10-13T23:21:14.919Z,13.60
2022-10-13T23:23:42.498Z,13.60
2022-10-13T23:26:20.040Z,13.60
2022-10-13T23:28:47.481Z,13.60
2022-10-13T23:31:16.730Z,13.60
2022-10-13T23:33:45.080Z,13.60
2022-10-13T23:36:17.985Z,13.60
2022-10-13T23:38:45.793Z,13.60
2022-10-13T23:41:15.762Z,13.60
2022-10-13T23:43:43.381Z,13.60
2022-10-13T23:46:11.342Z,13.60
2022-10-13T23:48:40.149Z,13.60
2022-10-13T23:51:13.286Z,13.60
2022-10-13T23:53:41.035Z,13.60
2022-10-13T23:56:09.662Z,13.60
2022-10-13T23:58:38.439Z,13.70
